createdAt,value
2018-05-13T00:00:38.757Z,0
2018-05-13T00:01:38.528Z,0
2018-05-13T00:02:38.566Z,0
2018-05-13T00:03:38.853Z,0
2018-05-13T00:04:38.868Z,0
2018-05-13T00:05:38.642Z,0
2018-05-13T00:06:38.922Z,0
2018-05-13T00:07:38.747Z,0
2018-05-13T00:08:38.983Z,0
2018-05-13T00:09:39.077Z,0
2018-05-13T00:10:39.036Z,0
2018-05-13T00:11:38.538Z,0
2018-05-13T00:12:38.861Z,0
2018-05-13T00:13:39.097Z,0
2018-05-13T00:14:39.122Z,0
2018-05-13T00:15:39.158Z,0
2018-05-13T00:16:39.182Z,0
2018-05-13T00:17:38.941Z,0
2018-05-13T00:18:38.974Z,0
2018-05-13T00:19:38.996Z,0
2018-05-13T00:20:39.267Z,0
2018-05-13T00:21:39.293Z,0
2018-05-13T00:22:39.115Z,0
2018-05-13T00:23:39.374Z,0
2018-05-13T00:24:39.135Z,0
2018-05-13T00:25:39.151Z,0
2018-05-13T00:26:39.169Z,0
2018-05-13T00:27:39.035Z,0
2018-05-13T00:28:38.976Z,0
2018-05-13T00:29:39.250Z,0
2018-05-13T00:30:39.524Z,0
2018-05-13T00:31:39.551Z,0
2018-05-13T00:32:39.569Z,0
2018-05-13T00:33:39.605Z,0
2018-05-13T00:34:39.607Z,0
2018-05-13T00:35:39.381Z,0
2018-05-13T00:36:39.152Z,0
2018-05-13T00:37:39.227Z,0
2018-05-13T00:38:39.204Z,0
2018-05-13T00:39:39.470Z,0
2018-05-13T00:40:39.779Z,0
2018-05-13T00:41:39.546Z,0
2018-05-13T00:42:39.822Z,0
2018-05-13T00:43:39.584Z,0
2018-05-13T00:44:39.609Z,0
2018-05-13T00:45:39.126Z,0
2018-05-13T00:46:39.660Z,0
2018-05-13T00:47:39.956Z,0
2018-05-13T00:48:39.970Z,0
2018-05-13T00:49:39.984Z,0
2018-05-13T00:50:40.119Z,0
2018-05-13T00:51:39.781Z,0
2018-05-13T00:52:40.109Z,0
2018-05-13T00:53:39.576Z,0
2018-05-13T00:54:40.122Z,0
2018-05-13T00:55:40.145Z,0
2018-05-13T00:56:39.912Z,0
2018-05-13T00:57:40.198Z,0
2018-05-13T00:58:40.214Z,0
2018-05-13T00:59:39.978Z,0
2018-05-13T01:00:39.769Z,0
2018-05-13T01:01:40.297Z,0
2018-05-13T01:02:40.394Z,0
2018-05-13T01:03:40.102Z,0
2018-05-13T01:04:40.368Z,0
2018-05-13T01:05:40.408Z,0
2018-05-13T01:06:39.654Z,0
2018-05-13T01:07:40.505Z,0
2018-05-13T01:08:40.221Z,0
2018-05-13T01:09:40.225Z,0
2018-05-13T01:10:40.263Z,0
2018-05-13T01:11:40.523Z,0
2018-05-13T01:12:40.302Z,0
2018-05-13T01:13:40.586Z,0
2018-05-13T01:14:40.348Z,0
2018-05-13T01:15:40.387Z,0
2018-05-13T01:16:40.395Z,0
2018-05-13T01:17:40.772Z,0
2018-05-13T01:18:40.835Z,0
2018-05-13T01:19:40.743Z,0
2018-05-13T01:20:40.762Z,0
2018-05-13T01:21:40.793Z,0
2018-05-13T01:22:40.863Z,0
2018-05-13T01:23:40.839Z,0
2018-05-13T01:24:40.608Z,0
2018-05-13T01:25:40.897Z,0
2018-05-13T01:26:40.401Z,0
2018-05-13T01:27:40.724Z,0
2018-05-13T01:28:40.707Z,0
2018-05-13T01:29:40.734Z,0
2018-05-13T01:30:41.013Z,0
2018-05-13T01:31:41.035Z,0
2018-05-13T01:32:41.059Z,0
2018-05-13T01:33:40.848Z,0
2018-05-13T01:34:41.121Z,0
2018-05-13T01:35:41.129Z,0
2018-05-13T01:36:41.163Z,0
2018-05-13T01:37:41.229Z,0
2018-05-13T01:38:40.718Z,0
2018-05-13T01:39:40.985Z,0
2018-05-13T01:40:41.023Z,0
2018-05-13T01:41:41.285Z,0
2018-05-13T01:42:41.134Z,0
2018-05-13T01:43:41.339Z,0
2018-05-13T01:44:40.584Z,0
2018-05-13T01:45:41.370Z,0
2018-05-13T01:46:40.885Z,4
2018-05-13T01:47:41.158Z,4
2018-05-13T01:48:41.434Z,4
2018-05-13T01:49:41.462Z,0
2018-05-13T01:50:41.237Z,0
2018-05-13T01:51:41.004Z,4
2018-05-13T01:52:41.594Z,0
2018-05-13T01:53:41.568Z,0
2018-05-13T01:54:41.350Z,0
2018-05-13T01:55:41.371Z,0
2018-05-13T01:56:41.385Z,0
2018-05-13T01:57:41.428Z,0
2018-05-13T01:58:41.695Z,0
2018-05-13T01:59:41.458Z,0
2018-05-13T02:00:41.738Z,0
2018-05-13T02:01:41.772Z,0
2018-05-13T02:02:41.531Z,0
2018-05-13T02:03:41.558Z,0
2018-05-13T02:04:41.840Z,0
2018-05-13T02:05:41.608Z,0
2018-05-13T02:06:41.879Z,0
2018-05-13T02:07:41.716Z,0
2018-05-13T02:08:41.940Z,0
2018-05-13T02:09:41.958Z,0
2018-05-13T02:10:41.729Z,0
2018-05-13T02:11:41.482Z,0
2018-05-13T02:12:41.507Z,0
2018-05-13T02:13:42.045Z,0
2018-05-13T02:14:42.059Z,0
2018-05-13T02:15:42.083Z,0
2018-05-13T02:16:42.106Z,0
2018-05-13T02:17:42.136Z,0
2018-05-13T02:18:41.904Z,0
2018-05-13T02:19:42.183Z,0
2018-05-13T02:20:42.213Z,0
2018-05-13T02:21:42.228Z,0
2018-05-13T02:22:42.301Z,0
2018-05-13T02:23:42.025Z,0
2018-05-13T02:24:42.299Z,0
2018-05-13T02:25:42.328Z,0
2018-05-13T02:26:42.368Z,0
2018-05-13T02:27:42.420Z,0
2018-05-13T02:28:42.156Z,0
2018-05-13T02:29:42.422Z,0
2018-05-13T02:30:42.459Z,0
2018-05-13T02:31:42.497Z,0
2018-05-13T02:32:42.510Z,0
2018-05-13T02:33:42.543Z,0
2018-05-13T02:34:42.050Z,0
2018-05-13T02:35:42.584Z,0
2018-05-13T02:36:42.617Z,0
2018-05-13T02:37:42.698Z,0
2018-05-13T02:38:42.655Z,0
2018-05-13T02:39:42.671Z,0
2018-05-13T02:40:42.702Z,0
2018-05-13T02:41:42.724Z,0
2018-05-13T02:42:42.743Z,0
2018-05-13T02:43:42.532Z,0
2018-05-13T02:44:42.793Z,0
2018-05-13T02:45:42.842Z,0
2018-05-13T02:46:42.844Z,0
2018-05-13T02:47:42.867Z,0
2018-05-13T02:48:42.877Z,0
2018-05-13T02:49:42.908Z,4
2018-05-13T02:50:42.932Z,4
2018-05-13T02:51:42.971Z,4
2018-05-13T02:52:43.039Z,4
2018-05-13T02:53:42.743Z,4
2018-05-13T02:54:43.127Z,4
2018-05-13T02:55:43.066Z,4
2018-05-13T02:56:43.091Z,4
2018-05-13T02:57:42.597Z,4
2018-05-13T02:58:42.864Z,4
2018-05-13T02:59:42.640Z,4
2018-05-13T03:00:42.920Z,4
2018-05-13T03:01:43.192Z,4
2018-05-13T03:02:43.214Z,4
2018-05-13T03:03:43.000Z,0
2018-05-13T03:04:43.275Z,4
2018-05-13T03:05:42.786Z,4
2018-05-13T03:06:43.070Z,4
2018-05-13T03:07:43.392Z,4
2018-05-13T03:08:43.364Z,4
2018-05-13T03:09:43.131Z,4
2018-05-13T03:10:42.921Z,8
2018-05-13T03:11:43.192Z,8
2018-05-13T03:12:43.474Z,8
2018-05-13T03:13:43.491Z,8
2018-05-13T03:14:43.514Z,8
2018-05-13T03:15:43.547Z,12
2018-05-13T03:16:43.556Z,12
2018-05-13T03:17:43.584Z,16
2018-05-13T03:18:43.440Z,16
2018-05-13T03:19:43.127Z,20
2018-05-13T03:20:43.658Z,24
2018-05-13T03:21:43.686Z,28
2018-05-13T03:22:43.498Z,28
2018-05-13T03:23:43.735Z,36
2018-05-13T03:24:43.756Z,40
2018-05-13T03:25:43.780Z,44
2018-05-13T03:26:43.544Z,56
2018-05-13T03:27:43.620Z,60
2018-05-13T03:28:43.853Z,68
2018-05-13T03:29:43.625Z,76
2018-05-13T03:30:43.919Z,88
2018-05-13T03:31:43.668Z,100
2018-05-13T03:32:43.962Z,112
2018-05-13T03:33:43.707Z,128
2018-05-13T03:34:43.979Z,140
2018-05-13T03:35:43.761Z,152
2018-05-13T03:36:43.793Z,172
2018-05-13T03:37:43.562Z,188
2018-05-13T03:38:44.085Z,212
2018-05-13T03:39:44.134Z,228
2018-05-13T03:40:44.143Z,252
2018-05-13T03:41:44.166Z,272
2018-05-13T03:42:43.980Z,296
2018-05-13T03:43:43.695Z,316
2018-05-13T03:44:43.718Z,344
2018-05-13T03:45:44.002Z,368
2018-05-13T03:46:43.514Z,396
2018-05-13T03:47:44.309Z,420
2018-05-13T03:48:44.329Z,452
2018-05-13T03:49:44.114Z,480
2018-05-13T03:50:44.136Z,508
2018-05-13T03:51:44.393Z,540
2018-05-13T03:52:44.502Z,568
2018-05-13T03:53:44.429Z,600
2018-05-13T03:54:44.471Z,628
2018-05-13T03:55:44.470Z,664
2018-05-13T03:56:44.234Z,696
2018-05-13T03:57:44.318Z,728
2018-05-13T03:58:44.548Z,760
2018-05-13T03:59:44.568Z,792
2018-05-13T04:00:44.584Z,824
2018-05-13T04:01:44.630Z,860
2018-05-13T04:02:44.385Z,892
2018-05-13T04:03:44.650Z,928
2018-05-13T04:04:44.417Z,960
2018-05-13T04:05:44.697Z,992
2018-05-13T04:06:44.728Z,1028
2018-05-13T04:07:44.748Z,1064
2018-05-13T04:08:44.266Z,1100
2018-05-13T04:09:44.549Z,1140
2018-05-13T04:10:44.636Z,1176
2018-05-13T04:11:44.358Z,1216
2018-05-13T04:12:44.686Z,1264
2018-05-13T04:13:44.663Z,1536
2018-05-13T04:14:44.682Z,2352
2018-05-13T04:15:44.456Z,2392
2018-05-13T04:16:44.732Z,1832
2018-05-13T04:17:45.007Z,2168
2018-05-13T04:18:45.024Z,2576
2018-05-13T04:19:44.798Z,2476
2018-05-13T04:20:44.825Z,1916
2018-05-13T04:21:44.845Z,1592
2018-05-13T04:22:45.215Z,1596
2018-05-13T04:23:44.893Z,1636
2018-05-13T04:24:44.911Z,1676
2018-05-13T04:25:45.201Z,1708
2018-05-13T04:26:44.710Z,1736
2018-05-13T04:27:45.256Z,1768
2018-05-13T04:28:44.973Z,1800
2018-05-13T04:29:45.256Z,1836
2018-05-13T04:30:45.276Z,1872
2018-05-13T04:31:45.303Z,1904
2018-05-13T04:32:45.087Z,1936
2018-05-13T04:33:45.095Z,1972
2018-05-13T04:34:45.120Z,2012
2018-05-13T04:35:45.397Z,2052
2018-05-13T04:36:45.179Z,2092
2018-05-13T04:37:45.217Z,2120
2018-05-13T04:38:45.246Z,2160
2018-05-13T04:39:45.614Z,2200
2018-05-13T04:40:45.545Z,2244
2018-05-13T04:41:45.316Z,2272
2018-05-13T04:42:45.385Z,2280
2018-05-13T04:43:45.108Z,2316
2018-05-13T04:44:45.129Z,2364
2018-05-13T04:45:45.419Z,2408
2018-05-13T04:46:45.441Z,2456
2018-05-13T04:47:45.486Z,2504
2018-05-13T04:48:45.742Z,2552
2018-05-13T04:49:45.757Z,2596
2018-05-13T04:50:45.784Z,2632
2018-05-13T04:51:45.812Z,2672
2018-05-13T04:52:45.593Z,2708
2018-05-13T04:53:45.863Z,2744
2018-05-13T04:54:45.619Z,2792
2018-05-13T04:55:45.901Z,2828
2018-05-13T04:56:45.681Z,2864
2018-05-13T04:57:46.795Z,2904
2018-05-13T04:58:45.717Z,2936
2018-05-13T04:59:45.798Z,2976
2018-05-13T05:00:46.026Z,3016
2018-05-13T05:01:46.047Z,3052
2018-05-13T05:02:46.071Z,3088
2018-05-13T05:03:45.841Z,3128
2018-05-13T05:04:45.860Z,3180
2018-05-13T05:05:46.133Z,3212
2018-05-13T05:06:45.389Z,3260
2018-05-13T05:07:45.918Z,3300
2018-05-13T05:08:46.210Z,3336
2018-05-13T05:09:45.963Z,3376
2018-05-13T05:10:45.988Z,3416
2018-05-13T05:11:46.016Z,3456
2018-05-13T05:12:46.347Z,3496
2018-05-13T05:13:46.311Z,3540
2018-05-13T05:14:46.075Z,3592
2018-05-13T05:15:46.102Z,3628
2018-05-13T05:16:46.123Z,3660
2018-05-13T05:17:46.402Z,3692
2018-05-13T05:18:46.170Z,3728
2018-05-13T05:19:46.197Z,3756
2018-05-13T05:20:46.218Z,3796
2018-05-13T05:21:46.262Z,3836
2018-05-13T05:22:46.537Z,3884
2018-05-13T05:23:46.548Z,3924
2018-05-13T05:24:46.313Z,3964
2018-05-13T05:25:46.357Z,4000
2018-05-13T05:26:46.367Z,4044
2018-05-13T05:27:46.543Z,4084
2018-05-13T05:28:46.437Z,4100
2018-05-13T05:29:46.682Z,4136
2018-05-13T05:30:46.725Z,4176
2018-05-13T05:31:46.731Z,4220
2018-05-13T05:32:46.501Z,4260
2018-05-13T05:33:46.527Z,4300
2018-05-13T05:34:46.295Z,4340
2018-05-13T05:35:46.743Z,4384
2018-05-13T05:36:46.340Z,4432
2018-05-13T05:37:46.368Z,4484
2018-05-13T05:38:46.911Z,4540
2018-05-13T05:39:46.686Z,4608
2018-05-13T05:40:46.435Z,4656
2018-05-13T05:41:46.460Z,4648
2018-05-13T05:42:46.555Z,4648
2018-05-13T05:43:46.508Z,4664
2018-05-13T05:44:47.043Z,4696
2018-05-13T05:45:46.307Z,4724
2018-05-13T05:46:47.084Z,4748
2018-05-13T05:47:47.104Z,4776
2018-05-13T05:48:46.887Z,4808
2018-05-13T05:49:46.917Z,4844
2018-05-13T05:50:46.905Z,4880
2018-05-13T05:51:46.950Z,4928
2018-05-13T05:52:46.957Z,4980
2018-05-13T05:53:47.261Z,5024
2018-05-13T05:54:47.283Z,5072
2018-05-13T05:55:47.324Z,5116
2018-05-13T05:56:47.344Z,5136
2018-05-13T05:57:47.421Z,5188
2018-05-13T05:58:47.466Z,5236
2018-05-13T05:59:47.411Z,5272
2018-05-13T06:00:47.421Z,5316
2018-05-13T06:01:47.453Z,5348
2018-05-13T06:02:47.319Z,5388
2018-05-13T06:03:47.499Z,5444
2018-05-13T06:04:47.299Z,5484
2018-05-13T06:05:47.296Z,5528
2018-05-13T06:06:47.347Z,5556
2018-05-13T06:07:47.589Z,5572
2018-05-13T06:08:47.669Z,5592
2018-05-13T06:09:47.386Z,5612
2018-05-13T06:10:47.671Z,5640
2018-05-13T06:11:47.685Z,5632
2018-05-13T06:12:47.254Z,5632
2018-05-13T06:13:47.778Z,5668
2018-05-13T06:14:47.508Z,5712
2018-05-13T06:15:47.532Z,5732
2018-05-13T06:16:47.771Z,5740
2018-05-13T06:17:47.579Z,5776
2018-05-13T06:18:47.875Z,5796
2018-05-13T06:19:47.901Z,5804
2018-05-13T06:20:47.401Z,5808
2018-05-13T06:21:47.681Z,5840
2018-05-13T06:22:47.964Z,5864
2018-05-13T06:23:47.726Z,5892
2018-05-13T06:24:48.007Z,5924
2018-05-13T06:25:47.777Z,5948
2018-05-13T06:26:47.549Z,5976
2018-05-13T06:27:47.620Z,5984
2018-05-13T06:28:47.868Z,5992
2018-05-13T06:29:48.129Z,6004
2018-05-13T06:30:47.898Z,6020
2018-05-13T06:31:48.246Z,6036
2018-05-13T06:32:48.216Z,6052
2018-05-13T06:33:47.970Z,6076
2018-05-13T06:34:47.733Z,6084
2018-05-13T06:35:48.284Z,6100
2018-05-13T06:36:47.782Z,6120
2018-05-13T06:37:48.060Z,6156
2018-05-13T06:38:47.833Z,6192
2018-05-13T06:39:48.392Z,6228
2018-05-13T06:40:48.147Z,6252
2018-05-13T06:41:47.902Z,6252
2018-05-13T06:42:48.486Z,6240
2018-05-13T06:43:47.951Z,6252
2018-05-13T06:44:48.483Z,6176
2018-05-13T06:45:48.256Z,6284
2018-05-13T06:46:48.536Z,6300
2018-05-13T06:47:48.307Z,6320
2018-05-13T06:48:48.580Z,6340
2018-05-13T06:49:48.610Z,6352
2018-05-13T06:50:48.681Z,6364
2018-05-13T06:51:48.655Z,6388
2018-05-13T06:52:48.272Z,6404
2018-05-13T06:53:48.468Z,6412
2018-05-13T06:54:48.730Z,6436
2018-05-13T06:55:48.499Z,6460
2018-05-13T06:56:48.787Z,6468
2018-05-13T06:57:48.960Z,6484
2018-05-13T06:58:48.064Z,6496
2018-05-13T06:59:48.593Z,6508
2018-05-13T07:00:48.638Z,6528
2018-05-13T07:01:48.900Z,6548
2018-05-13T07:02:48.851Z,6548
2018-05-13T07:03:48.693Z,6572
2018-05-13T07:04:49.119Z,6600
2018-05-13T07:05:49.003Z,6612
2018-05-13T07:06:48.774Z,6624
2018-05-13T07:07:48.547Z,6636
2018-05-13T07:08:48.820Z,6644
2018-05-13T07:09:48.844Z,6668
2018-05-13T07:10:48.868Z,6668
2018-05-13T07:11:48.399Z,6668
2018-05-13T07:12:49.226Z,6704
2018-05-13T07:13:49.221Z,6712
2018-05-13T07:14:49.223Z,6736
2018-05-13T07:15:49.011Z,6760
2018-05-13T07:16:48.761Z,6784
2018-05-13T07:17:49.314Z,6800
2018-05-13T07:18:49.066Z,6808
2018-05-13T07:19:49.093Z,6812
2018-05-13T07:20:48.868Z,6844
2018-05-13T07:21:49.144Z,6856
2018-05-13T07:22:49.179Z,6864
2018-05-13T07:23:49.193Z,6884
2018-05-13T07:24:49.468Z,6912
2018-05-13T07:25:49.499Z,6928
2018-05-13T07:26:49.263Z,6944
2018-05-13T07:27:49.079Z,6968
2018-05-13T07:28:49.569Z,6964
2018-05-13T07:29:49.877Z,6976
2018-05-13T07:30:49.646Z,7004
2018-05-13T07:31:49.391Z,7024
2018-05-13T07:32:49.457Z,7032
2018-05-13T07:33:49.457Z,7052
2018-05-13T07:34:49.709Z,7076
2018-05-13T07:35:49.480Z,7092
2018-05-13T07:36:49.920Z,7100
2018-05-13T07:37:49.576Z,7136
2018-05-13T07:38:49.553Z,7148
2018-05-13T07:39:49.838Z,7164
2018-05-13T07:40:49.872Z,7160
2018-05-13T07:41:49.883Z,7212
2018-05-13T07:42:50.009Z,7196
2018-05-13T07:43:49.767Z,7224
2018-05-13T07:44:49.959Z,7244
2018-05-13T07:45:49.976Z,7252
2018-05-13T07:46:49.495Z,7284
2018-05-13T07:47:49.775Z,7300
2018-05-13T07:48:50.052Z,7324
2018-05-13T07:49:49.825Z,7336
2018-05-13T07:50:50.000Z,7368
2018-05-13T07:51:50.133Z,7388
2018-05-13T07:52:50.157Z,7388
2018-05-13T07:53:50.184Z,7424
2018-05-13T07:54:50.169Z,7440
2018-05-13T07:55:49.740Z,7444
2018-05-13T07:56:50.015Z,7468
2018-05-13T07:57:50.472Z,7496
2018-05-13T07:58:50.067Z,7512
2018-05-13T07:59:50.339Z,7548
2018-05-13T08:00:50.471Z,7560
2018-05-13T08:01:50.391Z,7588
2018-05-13T08:02:50.162Z,7612
2018-05-13T08:03:50.444Z,7636
2018-05-13T08:04:49.979Z,7648
2018-05-13T08:05:50.242Z,7636
2018-05-13T08:06:50.523Z,7700
2018-05-13T08:07:50.293Z,7732
2018-05-13T08:08:50.652Z,7736
2018-05-13T08:09:50.612Z,7800
2018-05-13T08:10:50.613Z,7848
2018-05-13T08:11:50.636Z,7896
2018-05-13T08:12:50.850Z,7944
2018-05-13T08:13:50.434Z,7968
2018-05-13T08:14:50.461Z,8016
2018-05-13T08:15:50.743Z,8052
2018-05-13T08:16:50.772Z,8064
2018-05-13T08:17:50.535Z,8092
2018-05-13T08:18:50.830Z,8124
2018-05-13T08:19:50.844Z,8172
2018-05-13T08:20:50.363Z,8132
2018-05-13T08:21:50.404Z,8184
2018-05-13T08:22:50.949Z,8232
2018-05-13T08:23:50.950Z,8264
2018-05-13T08:24:50.977Z,8340
2018-05-13T08:25:51.008Z,8360
2018-05-13T08:26:50.771Z,8412
2018-05-13T08:27:51.092Z,8496
2018-05-13T08:28:51.095Z,8536
2018-05-13T08:29:51.125Z,8560
2018-05-13T08:30:51.148Z,8584
2018-05-13T08:31:51.166Z,8600
2018-05-13T08:32:51.198Z,8632
2018-05-13T08:33:50.966Z,8664
2018-05-13T08:34:51.000Z,8676
2018-05-13T08:35:51.033Z,8712
2018-05-13T08:36:51.050Z,8720
2018-05-13T08:37:51.441Z,8732
2018-05-13T08:38:51.354Z,8768
2018-05-13T08:39:50.887Z,8796
2018-05-13T08:40:51.403Z,8808
2018-05-13T08:41:51.556Z,8832
2018-05-13T08:42:51.347Z,8852
2018-05-13T08:43:51.231Z,8888
2018-05-13T08:44:51.501Z,8936
2018-05-13T08:45:51.362Z,8980
2018-05-13T08:46:51.567Z,9004
2018-05-13T08:47:51.584Z,9020
2018-05-13T08:48:51.611Z,9032
2018-05-13T08:49:51.640Z,9048
2018-05-13T08:50:51.413Z,9048
2018-05-13T08:51:51.713Z,9072
2018-05-13T08:52:51.323Z,9092
2018-05-13T08:53:51.237Z,9120
2018-05-13T08:54:51.527Z,9136
2018-05-13T08:55:51.798Z,9168
2018-05-13T08:56:51.823Z,9232
2018-05-13T08:57:51.652Z,9284
2018-05-13T08:58:51.886Z,9224
2018-05-13T08:59:51.765Z,9228
2018-05-13T09:00:51.695Z,9264
2018-05-13T09:01:51.713Z,9272
2018-05-13T09:02:52.005Z,9308
2018-05-13T09:03:51.994Z,9356
2018-05-13T09:04:51.782Z,9404
2018-05-13T09:05:51.791Z,9424
2018-05-13T09:06:52.075Z,9444
2018-05-13T09:07:52.112Z,9460
2018-05-13T09:08:51.899Z,9444
2018-05-13T09:09:51.929Z,9472
2018-05-13T09:10:51.964Z,9512
2018-05-13T09:11:51.978Z,9500
2018-05-13T09:12:52.057Z,9584
2018-05-13T09:13:52.281Z,9616
2018-05-13T09:14:52.061Z,9636
2018-05-13T09:15:52.341Z,9648
2018-05-13T09:16:52.132Z,9680
2018-05-13T09:17:52.146Z,9720
2018-05-13T09:18:52.432Z,9800
2018-05-13T09:19:52.476Z,9844
2018-05-13T09:20:52.413Z,9868
2018-05-13T09:21:52.510Z,9884
2018-05-13T09:22:52.296Z,9864
2018-05-13T09:23:52.057Z,9860
2018-05-13T09:24:52.101Z,9860
2018-05-13T09:25:52.615Z,9888
2018-05-13T09:26:52.680Z,9912
2018-05-13T09:27:52.731Z,9996
2018-05-13T09:28:52.703Z,10032
2018-05-13T09:29:52.716Z,10084
2018-05-13T09:30:52.488Z,10148
2018-05-13T09:31:52.260Z,10576
2018-05-13T09:32:52.857Z,11252
2018-05-13T09:33:52.822Z,11540
2018-05-13T09:34:52.858Z,11616
2018-05-13T09:35:52.131Z,11728
2018-05-13T09:36:52.921Z,11828
2018-05-13T09:37:52.682Z,11956
2018-05-13T09:38:52.711Z,11996
2018-05-13T09:39:53.000Z,12040
2018-05-13T09:40:52.525Z,12076
2018-05-13T09:41:53.049Z,12188
2018-05-13T09:42:52.824Z,12240
2018-05-13T09:43:53.105Z,12408
2018-05-13T09:44:52.629Z,12432
2018-05-13T09:45:53.046Z,12476
2018-05-13T09:46:53.222Z,12544
2018-05-13T09:47:53.287Z,12624
2018-05-13T09:48:53.015Z,12636
2018-05-13T09:49:52.538Z,12652
2018-05-13T09:50:53.327Z,12680
2018-05-13T09:51:53.364Z,12756
2018-05-13T09:52:53.488Z,12888
2018-05-13T09:53:53.422Z,13160
2018-05-13T09:54:53.451Z,13380
2018-05-13T09:55:53.488Z,13516
2018-05-13T09:56:53.515Z,13628
2018-05-13T09:57:53.541Z,13696
2018-05-13T09:58:53.063Z,13832
2018-05-13T09:59:52.845Z,14040
2018-05-13T10:00:53.641Z,14176
2018-05-13T10:01:53.670Z,14340
2018-05-13T10:02:53.752Z,14560
2018-05-13T10:03:53.481Z,14640
2018-05-13T10:04:53.759Z,14912
2018-05-13T10:05:53.602Z,15200
2018-05-13T10:06:53.844Z,15424
2018-05-13T10:07:53.859Z,15680
2018-05-13T10:08:53.628Z,15776
2018-05-13T10:09:53.922Z,16032
2018-05-13T10:10:53.945Z,16448
2018-05-13T10:11:53.736Z,16608
2018-05-13T10:12:53.757Z,16864
2018-05-13T10:13:54.045Z,17056
2018-05-13T10:14:53.819Z,17056
2018-05-13T10:15:54.109Z,17376
2018-05-13T10:16:54.145Z,17632
2018-05-13T10:17:54.229Z,17696
2018-05-13T10:18:54.209Z,18208
2018-05-13T10:19:54.243Z,18112
2018-05-13T10:20:54.273Z,18176
2018-05-13T10:21:53.786Z,18592
2018-05-13T10:22:54.066Z,18688
2018-05-13T10:23:54.354Z,18720
2018-05-13T10:24:54.394Z,18752
2018-05-13T10:25:54.421Z,19136
2018-05-13T10:26:54.465Z,19968
2018-05-13T10:27:54.239Z,21344
2018-05-13T10:28:54.275Z,24160
2018-05-13T10:29:54.296Z,26112
2018-05-13T10:30:54.330Z,26336
2018-05-13T10:31:54.354Z,23968
2018-05-13T10:32:54.693Z,20064
2018-05-13T10:33:54.680Z,17792
2018-05-13T10:34:54.714Z,17408
2018-05-13T10:35:54.769Z,17376
2018-05-13T10:36:54.809Z,17344
2018-05-13T10:37:54.878Z,17120
2018-05-13T10:38:54.862Z,17632
2018-05-13T10:39:54.902Z,18304
2018-05-13T10:40:54.931Z,18816
2018-05-13T10:41:54.722Z,19040
2018-05-13T10:42:54.749Z,18592
2018-05-13T10:43:55.035Z,15640
2018-05-13T10:44:55.067Z,10792
2018-05-13T10:45:55.110Z,10688
2018-05-13T10:46:54.882Z,10776
2018-05-13T10:47:54.925Z,13020
2018-05-13T10:48:54.941Z,18784
2018-05-13T10:49:54.974Z,19168
2018-05-13T10:50:55.008Z,19712
2018-05-13T10:51:55.305Z,20128
2018-05-13T10:52:55.409Z,19488
2018-05-13T10:53:55.371Z,19232
2018-05-13T10:54:55.425Z,19232
2018-05-13T10:55:55.193Z,19008
2018-05-13T10:56:55.475Z,19040
2018-05-13T10:57:55.936Z,18944
2018-05-13T10:58:55.294Z,19232
2018-05-13T10:59:55.583Z,20160
2018-05-13T11:00:55.619Z,20448
2018-05-13T11:01:55.396Z,20992
2018-05-13T11:02:55.696Z,21056
2018-05-13T11:03:55.714Z,17600
2018-05-13T11:04:55.582Z,20480
2018-05-13T11:05:55.530Z,22176
2018-05-13T11:06:55.297Z,21600
2018-05-13T11:07:55.878Z,22752
2018-05-13T11:08:55.610Z,23040
2018-05-13T11:09:55.905Z,23584
2018-05-13T11:10:55.430Z,24704
2018-05-13T11:11:55.969Z,25888
2018-05-13T11:12:56.002Z,25472
2018-05-13T11:13:56.036Z,23520
2018-05-13T11:14:55.590Z,22528
2018-05-13T11:15:56.131Z,24384
2018-05-13T11:16:56.164Z,29440
2018-05-13T11:17:56.201Z,32288
2018-05-13T11:18:56.238Z,32640
2018-05-13T11:19:56.353Z,33664
2018-05-13T11:20:56.399Z,35424
2018-05-13T11:21:56.341Z,35712
2018-05-13T11:22:56.180Z,35776
2018-05-13T11:23:55.903Z,34112
2018-05-13T11:24:56.456Z,34080
2018-05-13T11:25:56.482Z,36960
2018-05-13T11:26:56.512Z,39552
2018-05-13T11:27:56.554Z,40384
2018-05-13T11:28:56.599Z,39584
2018-05-13T11:29:56.626Z,38496
2018-05-13T11:30:56.157Z,37600
2018-05-13T11:31:56.697Z,36096
2018-05-13T11:32:56.724Z,35424
2018-05-13T11:33:57.137Z,15064
2018-05-13T11:34:56.541Z,21792
2018-05-13T11:35:56.600Z,18560
2018-05-13T11:36:56.626Z,28256
2018-05-13T11:37:56.713Z,48832
2018-05-13T11:38:56.951Z,49024
2018-05-13T11:39:57.235Z,44416
2018-05-13T11:40:56.785Z,42816
2018-05-13T11:41:56.830Z,43328
2018-05-13T11:42:57.091Z,42976
2018-05-13T11:43:57.140Z,45760
2018-05-13T11:44:56.938Z,26944
2018-05-13T11:45:57.203Z,23776
2018-05-13T11:46:57.243Z,13736
2018-05-13T11:47:57.273Z,12440
2018-05-13T11:48:57.320Z,15036
2018-05-13T11:49:57.341Z,34464
2018-05-13T11:50:57.126Z,15548
2018-05-13T11:51:57.417Z,43936
2018-05-13T11:52:57.252Z,46624
2018-05-13T11:53:57.230Z,48864
2018-05-13T11:54:57.272Z,51232
2018-05-13T11:55:57.554Z,53600
2018-05-13T11:56:57.591Z,52256
2018-05-13T11:57:57.627Z,52128
2018-05-13T11:58:57.657Z,52160
2018-05-13T11:59:57.688Z,50816
2018-05-13T12:00:57.722Z,51264
2018-05-13T12:01:57.523Z,48800
2018-05-13T12:02:57.797Z,46400
2018-05-13T12:03:57.582Z,49120
2018-05-13T12:04:57.867Z,52032
2018-05-13T12:05:57.905Z,52192
2018-05-13T12:06:57.441Z,51392
2018-05-13T12:07:57.786Z,51712
2018-05-13T12:08:57.768Z,52704
2018-05-13T12:09:57.813Z,55296
2018-05-13T12:10:58.102Z,55520
2018-05-13T12:11:58.138Z,54496
2018-05-13T12:12:58.171Z,56000
2018-05-13T12:13:57.961Z,57312
2018-05-13T12:14:57.990Z,57920
2018-05-13T12:15:57.774Z,58720
2018-05-13T12:16:57.820Z,56480
2018-05-13T12:17:58.107Z,56448
2018-05-13T12:18:58.398Z,54048
2018-05-13T12:19:58.432Z,48992
2018-05-13T12:20:58.302Z,45440
2018-05-13T12:21:58.514Z,58304
2018-05-13T12:22:58.599Z,58912
2018-05-13T12:23:58.584Z,52576
2018-05-13T12:24:58.622Z,14988
2018-05-13T12:25:58.151Z,15940
2018-05-13T12:26:58.187Z,16368
2018-05-13T12:27:58.736Z,18272
2018-05-13T12:28:59.159Z,21664
2018-05-13T12:29:58.802Z,15880
2018-05-13T12:30:58.357Z,14080
2018-05-13T12:31:58.881Z,27808
2018-05-13T12:32:58.659Z,13432
2018-05-13T12:33:58.700Z,14476
2018-05-13T12:34:58.735Z,13996
2018-05-13T12:35:58.260Z,12748
2018-05-13T12:36:58.805Z,12272
2018-05-13T12:37:59.194Z,11732
2018-05-13T12:38:59.152Z,11560
2018-05-13T12:39:58.921Z,12128
2018-05-13T12:40:58.948Z,24384
2018-05-13T12:41:59.234Z,15444
2018-05-13T12:42:59.072Z,64832
2018-05-13T12:43:59.308Z,61120
2018-05-13T12:44:59.334Z,57632
2018-05-13T12:45:59.118Z,54208
2018-05-13T12:46:59.147Z,50592
2018-05-13T12:47:59.437Z,48384
2018-05-13T12:48:59.513Z,46816
2018-05-13T12:49:59.291Z,48256
2018-05-13T12:50:59.544Z,40256
2018-05-13T12:51:59.577Z,58016
2018-05-13T12:52:59.657Z,60832
2018-05-13T12:53:59.138Z,61600
2018-05-13T12:54:59.429Z,29664
2018-05-13T12:55:59.461Z,18368
2018-05-13T12:56:59.506Z,20416
2018-05-13T12:57:59.789Z,17128
2018-05-13T12:58:59.826Z,15032
2018-05-13T12:59:59.623Z,13824
2018-05-13T13:00:59.899Z,12812
2018-05-13T13:01:59.685Z,12304
2018-05-13T13:02:59.973Z,11892
2018-05-13T13:03:59.962Z,11868
2018-05-13T13:04:59.790Z,11960
2018-05-13T13:06:00.086Z,12412
2018-05-13T13:07:00.125Z,12536
2018-05-13T13:07:59.698Z,12516
2018-05-13T13:08:59.946Z,12300
2018-05-13T13:09:59.967Z,12564
2018-05-13T13:11:00.254Z,13816
2018-05-13T13:12:00.288Z,13884
2018-05-13T13:13:00.580Z,13648
2018-05-13T13:13:59.845Z,14156
2018-05-13T13:15:00.141Z,27520
2018-05-13T13:16:00.421Z,16516
2018-05-13T13:17:00.457Z,14520
2018-05-13T13:18:00.234Z,13372
2018-05-13T13:19:00.515Z,14256
2018-05-13T13:20:00.509Z,69760
2018-05-13T13:21:00.616Z,67264
2018-05-13T13:22:00.620Z,11876
2018-05-13T13:23:00.708Z,11552
2018-05-13T13:24:00.179Z,11896
2018-05-13T13:24:59.957Z,16168
2018-05-13T13:26:01.128Z,14632
2018-05-13T13:27:00.256Z,13720
2018-05-13T13:28:00.795Z,14628
2018-05-13T13:29:00.351Z,68384
2018-05-13T13:30:00.949Z,67296
2018-05-13T13:31:00.924Z,67232
2018-05-13T13:32:00.965Z,70880
2018-05-13T13:33:00.230Z,74144